Amesbury, MA

1:12 PM EST on February 14, 2016 (GMT -0500)
APRSWXNET | | Change Station
CLOSE
Current Station
Personal Weather Station
Location: Salisbury, MA
Elevation: 84 ft
Nearby Weather Stations

Elev 84 ft 42.86 °N, 70.90 °W | Updated 12 days ago

Clear
Clear
8 °F
Feels Like -7 °F
N
12
Wind Variable Wind from WNW
Gusts 19 mph

Today
High -- | Low -- °F
--% Chance of Precip.
Yesterday
High -- | Low -- °F
Precip. -- in
Pressure 30.39 in
Visibility 10.0 miles
Clouds Clear
Windchill -7 °F
Dew Point -15 °F
Humidity 33%
Rainfall in
Snow Depth Not available.
6:42 AM 5:13 PM
Waxing Crescent, 44% visible
METAR KLWM 141754Z 32014G20KT 10SM CLR M14/M27 A3037 RMK AO2 SLP289 T11441272 11144 21239 58003
Pressure 30.39 in
Visibility 10.0 miles
Clouds Clear
Windchill -7 °F
Dew Point -15 °F
Humidity 33%
Rainfall in
Snow Depth Not available.
6:42 AM 5:13 PM
Waxing Crescent, 44% visible
METAR KLWM 141754Z 32014G20KT 10SM CLR M14/M27 A3037 RMK AO2 SLP289 T11441272 11144 21239 58003

10-Day Weather Forecast

Almanac

Astronomy

Feb. 14, 2016 Rise Set
Actual Time
Civil Twilight
Nautical Twilight
Astronomical Twilight
Moon
Length of Visible Light
Length of Day
Tomorrow will be .
, % of the Moon is Illuminated

Today's Extremes

State Highs State Lows

Community

WunderPhotos

Upload Photos

1,892,867 photos uploaded!

WunderBlog® & News

Nearby

Air Quality

  Air Quality AQ Index Pollutant
Not available.

Snow Depth

Station Depth Elevation

Earthquake Activity

City Distance Mag. Time & Date
Minimum magnitude displayed is 2.5.

Coastal Water Temperatures

Place Temperature

Stations

Nearby Weather Stations

Station Location Temp. Windchill Dew Point Humidity Wind Precip. Elev Updated Type
                   

Watches & Warnings

There are currently no watches in effect.